Time;durP1;ratioP1;P1;durP2;ratioP2;P2;SDS_P1;SDS_P2;PMS_P1;PMS_P2;Temp;Humidity;BMP_temperature;BMP_pressure;BME280_temperature;BME280_humidity;BME280_pressure;Samples;Min_cycle;Max_cycle;Signal;HPM_P1;HPM_P2
2023/05/30 00:02:00;;;;;;;19.92;3.10;;;;;;;;;;4978786;28;91726;-86
2023/05/30 00:04:27;;;;;;;19.02;4.43;;;;;;;;;;4977848;28;94776;-86
2023/05/30 00:06:54;;;;;;;21.02;4.03;;;;;;;;;;4962399;28;94497;-86
2023/05/30 00:09:20;;;;;;;12.80;3.08;;;;;;;;;;4962143;28;93942;-86
2023/05/30 00:11:48;;;;;;;7.97;2.65;;;;;;;;;;4968922;28;92311;-86
2023/05/30 00:14:20;;;;;;;22.25;4.32;;;;;;;;;;4965292;28;94429;-86
2023/05/30 00:16:47;;;;;;;18.17;4.60;;;;;;;;;;4965984;28;94825;-86
2023/05/30 00:19:13;;;;;;;25.10;3.90;;;;;;;;;;4965761;28;92920;-86
2023/05/30 00:21:40;;;;;;;26.25;3.35;;;;;;;;;;4965645;28;92665;-87
2023/05/30 00:24:07;;;;;;;15.52;3.67;;;;;;;;;;4969112;28;92371;-87
2023/05/30 00:26:34;;;;;;;21.15;4.47;;;;;;;;;;4979216;28;91999;-86
2023/05/30 00:29:00;;;;;;;22.00;4.47;;;;;;;;;;4978976;28;93629;-86
2023/05/30 00:31:30;;;;;;;18.63;3.88;;;;;;;;;;4978822;28;92493;-86
2023/05/30 00:33:59;;;;;;;11.35;2.28;;;;;;;;;;4979640;28;94856;-86
2023/05/30 00:36:26;;;;;;;26.95;4.25;;;;;;;;;;4982355;28;92880;-86
2023/05/30 00:38:52;;;;;;;14.50;2.70;;;;;;;;;;4962366;28;94325;-86
2023/05/30 00:41:19;;;;;;;23.65;5.65;;;;;;;;;;4978189;28;93959;-87
2023/05/30 00:43:46;;;;;;;20.48;2.92;;;;;;;;;;4981191;28;91854;-86
2023/05/30 00:46:14;;;;;;;13.20;3.13;;;;;;;;;;4977575;28;94844;-86
2023/05/30 00:48:41;;;;;;;19.17;3.30;;;;;;;;;;4977773;28;91645;-86
2023/05/30 00:51:09;;;;;;;24.73;4.32;;;;;;;;;;4955154;28;92679;-86
2023/05/30 00:53:35;;;;;;;17.75;3.05;;;;;;;;;;4969042;28;91629;-87
2023/05/30 00:56:02;;;;;;;24.10;4.30;;;;;;;;;;4978766;28;92215;-86
2023/05/30 00:58:29;;;;;;;16.67;3.05;;;;;;;;;;4997450;28;93865;-86
2023/05/30 01:00:56;;;;;;;10.15;3.22;;;;;;;;;;4975961;28;93624;-86
2023/05/30 01:03:24;;;;;;;20.45;3.17;;;;;;;;;;4975775;28;92119;-86
2023/05/30 01:05:51;;;;;;;22.38;4.20;;;;;;;;;;4989343;28;94929;-86
2023/05/30 01:08:19;;;;;;;26.98;4.00;;;;;;;;;;4973885;28;96675;-86
2023/05/30 01:10:48;;;;;;;17.52;4.07;;;;;;;;;;4959407;28;94193;-86
2023/05/30 01:13:19;;;;;;;22.10;3.08;;;;;;;;;;4970310;28;94394;-86
2023/05/30 01:15:50;;;;;;;18.23;4.00;;;;;;;;;;4971113;28;94214;-86
2023/05/30 01:18:43;;;;;;;31.85;5.13;;;;;;;;;;4977643;28;92798;-86
2023/05/30 01:21:12;;;;;;;15.82;3.70;;;;;;;;;;4947584;28;94420;-86
2023/05/30 01:23:43;;;;;;;10.95;3.30;;;;;;;;;;4974268;28;93926;-86
2023/05/30 01:26:10;;;;;;;18.75;4.10;;;;;;;;;;4962666;28;94727;-86
2023/05/30 01:28:37;;;;;;;20.77;3.75;;;;;;;;;;4970333;28;94407;-86
2023/05/30 01:31:04;;;;;;;14.85;3.75;;;;;;;;;;4982656;28;95496;-86
2023/05/30 01:33:32;;;;;;;24.30;3.53;;;;;;;;;;4983965;28;91782;-86
2023/05/30 01:35:59;;;;;;;17.48;3.28;;;;;;;;;;4983564;28;91656;-86
2023/05/30 01:38:27;;;;;;;21.00;4.03;;;;;;;;;;4976668;28;91910;-86
2023/05/30 01:40:57;;;;;;;16.77;2.80;;;;;;;;;;4980397;28;94188;-86
2023/05/30 01:43:24;;;;;;;12.10;3.38;;;;;;;;;;4984105;28;94259;-87
2023/05/30 01:45:54;;;;;;;18.05;3.80;;;;;;;;;;4964094;28;94584;-86
2023/05/30 01:48:21;;;;;;;19.30;3.85;;;;;;;;;;4973085;28;92135;-86
2023/05/30 01:50:48;;;;;;;19.80;4.10;;;;;;;;;;4979894;28;94812;-85
2023/05/30 01:53:25;;;;;;;16.80;3.85;;;;;;;;;;4979889;28;92148;-86
2023/05/30 01:55:54;;;;;;;28.67;4.93;;;;;;;;;;4978703;28;93919;-86
2023/05/30 01:58:21;;;;;;;11.88;3.55;;;;;;;;;;4979319;28;94872;-86
2023/05/30 02:00:49;;;;;;;22.30;3.45;;;;;;;;;;4976012;28;94975;-87
2023/05/30 02:03:16;;;;;;;16.25;4.13;;;;;;;;;;4963076;28;94832;-86
2023/05/30 02:05:43;;;;;;;26.42;4.07;;;;;;;;;;4966427;28;92916;-86
2023/05/30 02:08:10;;;;;;;15.27;3.45;;;;;;;;;;4971122;28;94820;-86
2023/05/30 02:10:36;;;;;;;18.20;3.40;;;;;;;;;;4975888;28;94376;-86
2023/05/30 02:13:03;;;;;;;18.10;4.18;;;;;;;;;;4964268;28;94709;-86
2023/05/30 02:15:30;;;;;;;17.83;2.80;;;;;;;;;;4968520;28;92309;-87
2023/05/30 02:17:59;;;;;;;10.02;2.92;;;;;;;;;;4961616;28;94806;-86
2023/05/30 02:20:26;;;;;;;16.63;3.70;;;;;;;;;;4971244;28;94950;-86
2023/05/30 02:22:52;;;;;;;12.32;2.85;;;;;;;;;;4973278;28;97227;-87
2023/05/30 02:25:20;;;;;;;17.25;3.65;;;;;;;;;;4956683;28;94353;-86
2023/05/30 02:27:49;;;;;;;16.27;3.70;;;;;;;;;;4983633;28;92403;-87
2023/05/30 02:30:16;;;;;;;23.55;4.40;;;;;;;;;;4975073;28;94770;-86
2023/05/30 02:32:43;;;;;;;12.02;3.53;;;;;;;;;;4957828;28;94914;-86
2023/05/30 02:35:10;;;;;;;8.77;2.72;;;;;;;;;;4948597;28;92390;-87
2023/05/30 02:37:39;;;;;;;24.98;3.90;;;;;;;;;;4944852;28;95310;-86
2023/05/30 02:40:09;;;;;;;18.55;3.90;;;;;;;;;;4953177;28;93202;-86
2023/05/30 02:42:36;;;;;;;19.23;3.45;;;;;;;;;;4941695;28;92513;-86
2023/05/30 02:45:06;;;;;;;23.30;4.28;;;;;;;;;;4938292;28;96824;-87
2023/05/30 02:47:36;;;;;;;17.60;3.65;;;;;;;;;;4952836;28;92446;-86
2023/05/30 02:50:04;;;;;;;15.05;4.47;;;;;;;;;;4952882;28;94335;-86
2023/05/30 02:52:30;;;;;;;15.63;4.53;;;;;;;;;;4937284;28;94334;-86
2023/05/30 02:54:59;;;;;;;11.68;3.28;;;;;;;;;;4950891;28;92492;-86
2023/05/30 02:57:45;;;;;;;16.15;3.40;;;;;;;;;;4967106;28;93056;-86
2023/05/30 03:00:17;;;;;;;;;;;;;;;;;;4915646;28;1186240;-86
2023/05/30 03:02:54;;;;;;;19.40;3.90;;;;;;;;;;4940896;28;93474;-86
2023/05/30 03:05:21;;;;;;;23.77;3.42;;;;;;;;;;4923867;28;94435;-86
2023/05/30 03:07:48;;;;;;;18.63;3.80;;;;;;;;;;4955599;28;92276;-86
2023/05/30 03:10:15;;;;;;;7.55;3.90;;;;;;;;;;4956635;28;94645;-86
2023/05/30 03:12:47;;;;;;;16.15;4.75;;;;;;;;;;4928721;28;92332;-86
2023/05/30 03:15:14;;;;;;;22.90;3.83;;;;;;;;;;4968509;28;95002;-86
2023/05/30 03:17:41;;;;;;;24.17;3.45;;;;;;;;;;4959384;28;92382;-87
2023/05/30 03:20:11;;;;;;;17.50;3.63;;;;;;;;;;4968232;28;92292;-86
2023/05/30 03:22:38;;;;;;;25.20;4.03;;;;;;;;;;4961693;28;94077;-87
2023/05/30 03:25:06;;;;;;;18.30;3.67;;;;;;;;;;4970748;28;94954;-86
2023/05/30 03:27:33;;;;;;;17.25;4.15;;;;;;;;;;4947827;28;95236;-86
2023/05/30 03:29:59;;;;;;;23.75;3.90;;;;;;;;;;4943707;28;92583;-86
2023/05/30 03:32:26;;;;;;;12.30;3.60;;;;;;;;;;4963836;28;93187;-86
2023/05/30 03:34:54;;;;;;;17.02;3.40;;;;;;;;;;4960327;28;94023;-86
2023/05/30 03:37:28;;;;;;;12.65;3.42;;;;;;;;;;4962078;28;92651;-86
2023/05/30 03:39:55;;;;;;;12.35;3.30;;;;;;;;;;4962746;28;95041;-86
2023/05/30 03:42:21;;;;;;;18.48;4.10;;;;;;;;;;4955670;28;93972;-86
2023/05/30 03:44:48;;;;;;;14.55;3.40;;;;;;;;;;4948394;28;94321;-86
2023/05/30 03:47:15;;;;;;;20.42;4.07;;;;;;;;;;4964880;28;94476;-86
2023/05/30 03:49:41;;;;;;;13.80;3.55;;;;;;;;;;4950413;28;95021;-86
2023/05/30 03:52:08;;;;;;;21.48;4.10;;;;;;;;;;4950584;28;92062;-86
2023/05/30 03:54:34;;;;;;;25.00;4.63;;;;;;;;;;4964352;28;92228;-87
2023/05/30 03:57:01;;;;;;;19.42;3.42;;;;;;;;;;4958912;28;94844;-86
2023/05/30 03:59:29;;;;;;;13.85;4.38;;;;;;;;;;4953521;28;94650;-86
2023/05/30 04:01:56;;;;;;;21.85;4.45;;;;;;;;;;4955840;28;93858;-86
2023/05/30 04:04:23;;;;;;;13.90;4.00;;;;;;;;;;4958397;28;94883;-86
2023/05/30 04:06:50;;;;;;;14.88;3.88;;;;;;;;;;4938147;28;95100;-86
2023/05/30 04:09:17;;;;;;;14.23;4.18;;;;;;;;;;4948388;28;92271;-86
2023/05/30 04:11:43;;;;;;;13.52;3.63;;;;;;;;;;4957525;28;93098;-86
2023/05/30 04:14:10;;;;;;;16.60;4.18;;;;;;;;;;4942961;28;95911;-86
2023/05/30 04:16:37;;;;;;;17.35;4.03;;;;;;;;;;4951327;28;94556;-86
2023/05/30 04:19:04;;;;;;;12.25;4.13;;;;;;;;;;4959734;28;93092;-86
2023/05/30 04:21:31;;;;;;;15.25;3.67;;;;;;;;;;4966792;28;93885;-86
2023/05/30 04:23:58;;;;;;;16.33;4.50;;;;;;;;;;4957191;28;95523;-86
2023/05/30 04:26:25;;;;;;;9.38;3.80;;;;;;;;;;4938722;28;94443;-86
2023/05/30 04:28:56;;;;;;;15.23;3.90;;;;;;;;;;4956855;28;94166;-85
2023/05/30 04:31:24;;;;;;;20.85;3.38;;;;;;;;;;4946286;28;94137;-85
2023/05/30 04:33:51;;;;;;;15.00;4.00;;;;;;;;;;4935302;28;95564;-85
2023/05/30 04:36:20;;;;;;;15.52;4.35;;;;;;;;;;4950087;28;94309;-86
2023/05/30 04:38:49;;;;;;;15.13;3.65;;;;;;;;;;4965069;28;94542;-86
2023/05/30 04:41:20;;;;;;;17.58;4.57;;;;;;;;;;4951015;28;95600;-86
2023/05/30 04:44:00;;;;;;;13.37;3.80;;;;;;;;;;4968988;28;94852;-86
2023/05/30 04:46:28;;;;;;;15.75;4.60;;;;;;;;;;4968692;28;93908;-86
2023/05/30 04:49:00;;;;;;;15.07;4.00;;;;;;;;;;4957740;28;95012;-86
2023/05/30 04:51:28;;;;;;;17.95;4.97;;;;;;;;;;4958240;28;92986;-86
2023/05/30 04:53:55;;;;;;;19.63;4.45;;;;;;;;;;4952276;28;96015;-86
2023/05/30 04:56:22;;;;;;;17.05;4.05;;;;;;;;;;4950573;28;95210;-86
2023/05/30 04:58:51;;;;;;;10.48;3.65;;;;;;;;;;4956845;28;94686;-86
2023/05/30 05:01:18;;;;;;;12.65;4.18;;;;;;;;;;4958929;28;92439;-86
2023/05/30 05:03:45;;;;;;;18.80;5.53;;;;;;;;;;4962962;28;92272;-86
2023/05/30 05:06:13;;;;;;;22.48;4.53;;;;;;;;;;4962377;28;92215;-86
2023/05/30 05:08:40;;;;;;;20.02;4.55;;;;;;;;;;4944309;28;93907;-86
2023/05/30 05:11:07;;;;;;;22.92;5.15;;;;;;;;;;4947844;28;95177;-86
2023/05/30 05:13:34;;;;;;;13.57;4.07;;;;;;;;;;4944011;28;94891;-86
2023/05/30 05:16:01;;;;;;;22.00;3.58;;;;;;;;;;4947098;28;93973;-86
2023/05/30 05:18:27;;;;;;;10.15;4.13;;;;;;;;;;4959652;28;92409;-86
2023/05/30 05:20:54;;;;;;;14.52;4.47;;;;;;;;;;4964508;28;92505;-86
2023/05/30 05:23:23;;;;;;;12.65;3.50;;;;;;;;;;4962514;28;92319;-86
2023/05/30 05:25:49;;;;;;;16.48;3.65;;;;;;;;;;4959812;28;92491;-86
2023/05/30 05:28:17;;;;;;;12.95;4.60;;;;;;;;;;4948890;28;92460;-86
2023/05/30 05:30:44;;;;;;;11.48;3.55;;;;;;;;;;4960488;28;92112;-86
2023/05/30 05:33:13;;;;;;;14.93;4.40;;;;;;;;;;4958763;28;93113;-86
2023/05/30 05:35:40;;;;;;;14.93;3.92;;;;;;;;;;4944632;28;92421;-86
2023/05/30 05:38:07;;;;;;;14.57;4.30;;;;;;;;;;4954516;28;95186;-86
2023/05/30 05:40:34;;;;;;;11.95;3.53;;;;;;;;;;4950651;28;92941;-86
2023/05/30 05:43:01;;;;;;;15.18;3.80;;;;;;;;;;4951022;28;92532;-85
2023/05/30 05:45:27;;;;;;;9.90;2.95;;;;;;;;;;4937883;28;93999;-85
2023/05/30 05:47:54;;;;;;;15.05;3.13;;;;;;;;;;4937258;28;92492;-85
2023/05/30 05:50:21;;;;;;;8.45;3.17;;;;;;;;;;4962133;28;95959;-86
2023/05/30 05:52:48;;;;;;;16.10;3.33;;;;;;;;;;4954688;28;94393;-86
2023/05/30 05:55:14;;;;;;;11.50;3.42;;;;;;;;;;4952250;28;93978;-85
2023/05/30 05:57:41;;;;;;;15.35;3.42;;;;;;;;;;4973536;28;92523;-86
2023/05/30 06:00:08;;;;;;;10.48;2.58;;;;;;;;;;4958447;28;94662;-85
2023/05/30 06:02:40;;;;;;;14.02;3.42;;;;;;;;;;4958161;28;94760;-84
2023/05/30 06:05:07;;;;;;;10.77;3.25;;;;;;;;;;4960513;28;92489;-87
2023/05/30 06:07:34;;;;;;;19.75;5.15;;;;;;;;;;4945634;28;92573;-86
2023/05/30 06:10:01;;;;;;;15.98;4.07;;;;;;;;;;4955341;28;92519;-85
2023/05/30 06:12:27;;;;;;;11.55;3.42;;;;;;;;;;4961730;28;92849;-86
2023/05/30 06:14:54;;;;;;;12.30;3.33;;;;;;;;;;4944998;28;92997;-85
2023/05/30 06:17:20;;;;;;;22.63;3.70;;;;;;;;;;4959418;28;93012;-85
2023/05/30 06:19:49;;;;;;;15.90;3.58;;;;;;;;;;4958715;28;93055;-84
2023/05/30 06:22:15;;;;;;;14.93;3.53;;;;;;;;;;4961523;28;92640;-85
2023/05/30 06:24:42;;;;;;;14.55;3.38;;;;;;;;;;4961194;28;93241;-84
2023/05/30 06:27:09;;;;;;;12.80;3.45;;;;;;;;;;4959388;28;95889;-85
2023/05/30 06:29:35;;;;;;;20.92;4.63;;;;;;;;;;4951923;28;93982;-85
2023/05/30 06:32:02;;;;;;;18.95;3.45;;;;;;;;;;4958561;28;92796;-85
2023/05/30 06:34:41;;;;;;;14.35;3.40;;;;;;;;;;4976983;28;92081;-86
2023/05/30 06:37:10;;;;;;;14.20;3.45;;;;;;;;;;4976730;28;94370;-85
2023/05/30 06:39:37;;;;;;;17.13;3.55;;;;;;;;;;4961108;28;92269;-85
2023/05/30 06:42:09;;;;;;;14.40;3.30;;;;;;;;;;4953456;28;94942;-85
2023/05/30 06:44:42;;;;;;;15.02;3.50;;;;;;;;;;4962963;28;92037;-85
2023/05/30 06:47:09;;;;;;;19.75;3.22;;;;;;;;;;4960120;28;92316;-86
2023/05/30 06:49:35;;;;;;;15.07;4.28;;;;;;;;;;4949596;28;92465;-87
2023/05/30 06:52:02;;;;;;;14.13;3.85;;;;;;;;;;4947462;28;94900;-85
2023/05/30 06:54:29;;;;;;;19.38;3.97;;;;;;;;;;4954631;28;96306;-86
2023/05/30 06:57:00;;;;;;;10.90;3.65;;;;;;;;;;4946648;28;92586;-85
2023/05/30 06:59:26;;;;;;;18.55;3.70;;;;;;;;;;4956326;28;93275;-85
2023/05/30 07:01:53;;;;;;;14.65;4.25;;;;;;;;;;4958074;28;92483;-86
2023/05/30 07:04:20;;;;;;;12.25;3.38;;;;;;;;;;4944906;28;93116;-85
2023/05/30 07:06:47;;;;;;;14.10;3.83;;;;;;;;;;4954049;28;95559;-86
2023/05/30 07:09:14;;;;;;;15.00;3.65;;;;;;;;;;4947436;28;93247;-86
2023/05/30 07:11:40;;;;;;;22.23;4.13;;;;;;;;;;4950149;28;94030;-86
2023/05/30 07:14:06;;;;;;;27.17;5.53;;;;;;;;;;4948192;28;92429;-87
2023/05/30 07:16:33;;;;;;;13.05;3.42;;;;;;;;;;4936203;28;96742;-86
2023/05/30 07:19:00;;;;;;;11.73;2.97;;;;;;;;;;4946409;28;94823;-87
2023/05/30 07:21:38;;;;;;;20.02;4.70;;;;;;;;;;4942117;28;95327;-86
2023/05/30 07:24:05;;;;;;;11.38;3.58;;;;;;;;;;4960065;28;92417;-85
2023/05/30 07:26:33;;;;;;;13.65;3.90;;;;;;;;;;4958943;28;94468;-86
2023/05/30 07:29:00;;;;;;;15.75;3.63;;;;;;;;;;4957400;28;94098;-86
2023/05/30 07:31:26;;;;;;;13.27;3.80;;;;;;;;;;4962094;28;92554;-86
2023/05/30 07:33:53;;;;;;;15.80;3.55;;;;;;;;;;4960079;28;93861;-86
2023/05/30 07:36:19;;;;;;;15.25;3.50;;;;;;;;;;4958300;28;92613;-85
2023/05/30 07:38:46;;;;;;;21.27;3.78;;;;;;;;;;4956804;28;92669;-85
2023/05/30 07:41:13;;;;;;;23.02;3.67;;;;;;;;;;4964349;28;94810;-86
2023/05/30 07:43:39;;;;;;;13.93;3.95;;;;;;;;;;4969226;28;93432;-86
2023/05/30 07:46:06;;;;;;;21.52;4.30;;;;;;;;;;4965192;28;91854;-86
2023/05/30 07:48:33;;;;;;;12.48;3.38;;;;;;;;;;4961341;28;92344;-86
2023/05/30 07:50:59;;;;;;;19.05;4.10;;;;;;;;;;4949204;28;96108;-86
2023/05/30 07:53:26;;;;;;;31.05;3.45;;;;;;;;;;4958670;28;92211;-86
2023/05/30 07:55:53;;;;;;;15.88;3.55;;;;;;;;;;4958362;28;95674;-86
2023/05/30 07:58:19;;;;;;;9.00;3.92;;;;;;;;;;4958356;28;96325;-86
2023/05/30 08:00:46;;;;;;;20.55;4.25;;;;;;;;;;4958764;28;92411;-85
2023/05/30 08:03:13;;;;;;;14.45;3.42;;;;;;;;;;4947195;28;93795;-86
2023/05/30 08:05:40;;;;;;;12.98;3.92;;;;;;;;;;4949312;28;94815;-86
2023/05/30 08:08:07;;;;;;;19.48;4.03;;;;;;;;;;4955253;28;97389;-86
2023/05/30 08:10:33;;;;;;;13.85;3.25;;;;;;;;;;4948171;28;93291;-86
2023/05/30 08:13:00;;;;;;;17.13;4.03;;;;;;;;;;4953085;28;92471;-86
2023/05/30 08:15:27;;;;;;;20.73;3.58;;;;;;;;;;4959094;28;92210;-86
2023/05/30 08:17:56;;;;;;;14.90;4.30;;;;;;;;;;4955854;28;92349;-86
2023/05/30 08:20:24;;;;;;;18.45;4.57;;;;;;;;;;4959057;28;94317;-85
2023/05/30 08:22:51;;;;;;;14.43;3.88;;;;;;;;;;4958189;28;94217;-86
2023/05/30 08:25:21;;;;;;;15.52;4.40;;;;;;;;;;4966497;28;94486;-86
2023/05/30 08:27:50;;;;;;;19.55;4.05;;;;;;;;;;4964069;28;92959;-86
2023/05/30 08:30:16;;;;;;;13.75;4.35;;;;;;;;;;4953396;28;95292;-86
2023/05/30 08:32:43;;;;;;;14.25;3.53;;;;;;;;;;4956190;28;92742;-86
2023/05/30 08:35:10;;;;;;;16.90;3.90;;;;;;;;;;4944964;28;92386;-86
2023/05/30 08:37:37;;;;;;;20.65;4.53;;;;;;;;;;4946718;28;92385;-86
2023/05/30 08:40:03;;;;;;;12.05;3.22;;;;;;;;;;4944178;28;92482;-86
2023/05/30 08:42:30;;;;;;;11.50;3.78;;;;;;;;;;4951970;28;94496;-85
2023/05/30 08:44:57;;;;;;;18.92;3.97;;;;;;;;;;4947151;28;92579;-86
2023/05/30 08:47:23;;;;;;;12.60;2.97;;;;;;;;;;4950731;28;92368;-86
2023/05/30 08:49:51;;;;;;;20.08;3.55;;;;;;;;;;4939191;28;94639;-85
2023/05/30 08:52:18;;;;;;;10.00;3.55;;;;;;;;;;4952254;28;92349;-85
2023/05/30 08:54:58;;;;;;;20.35;4.10;;;;;;;;;;4964283;28;94748;-86
2023/05/30 08:57:28;;;;;;;19.15;3.92;;;;;;;;;;4949518;28;94632;-86
2023/05/30 08:59:55;;;;;;;11.07;3.17;;;;;;;;;;4957581;28;94507;-86
2023/05/30 09:02:22;;;;;;;16.63;4.53;;;;;;;;;;4930544;28;94511;-85
2023/05/30 09:04:50;;;;;;;13.38;3.67;;;;;;;;;;4964507;28;93801;-86
2023/05/30 09:07:17;;;;;;;19.77;4.10;;;;;;;;;;4950344;28;92369;-86
2023/05/30 09:09:44;;;;;;;14.45;4.20;;;;;;;;;;4965034;28;92142;-86
2023/05/30 09:12:11;;;;;;;14.02;3.90;;;;;;;;;;4951584;28;94553;-87
2023/05/30 09:14:37;;;;;;;6.95;3.08;;;;;;;;;;4954838;28;92262;-86
2023/05/30 09:17:04;;;;;;;17.90;3.30;;;;;;;;;;4943616;28;92434;-86
2023/05/30 09:19:31;;;;;;;13.77;3.55;;;;;;;;;;4953941;28;94831;-86
2023/05/30 09:21:58;;;;;;;15.93;3.92;;;;;;;;;;4955398;28;92130;-86
2023/05/30 09:24:45;;;;;;;12.20;3.40;;;;;;;;;;4940290;28;92989;-86
2023/05/30 09:27:12;;;;;;;18.35;3.83;;;;;;;;;;4943848;28;94806;-86
2023/05/30 09:29:44;;;;;;;14.32;3.85;;;;;;;;;;4949963;28;93076;-86
2023/05/30 09:32:11;;;;;;;14.88;4.20;;;;;;;;;;4958784;28;92441;-85
2023/05/30 09:34:40;;;;;;;24.35;4.57;;;;;;;;;;4948042;28;95439;-85
2023/05/30 09:37:07;;;;;;;10.32;3.78;;;;;;;;;;4957908;28;92068;-85
2023/05/30 09:39:33;;;;;;;13.95;4.22;;;;;;;;;;4975258;28;92466;-85
2023/05/30 09:42:00;;;;;;;15.90;3.65;;;;;;;;;;4975294;28;92292;-85
2023/05/30 09:44:26;;;;;;;18.98;4.35;;;;;;;;;;4946619;28;94936;-85
2023/05/30 09:46:57;;;;;;;10.10;3.33;;;;;;;;;;4954847;28;97972;-85
2023/05/30 09:49:25;;;;;;;17.70;4.05;;;;;;;;;;4952893;28;95493;-86
2023/05/30 09:51:53;;;;;;;13.20;4.28;;;;;;;;;;4939105;28;94207;-84
2023/05/30 09:54:20;;;;;;;14.13;4.38;;;;;;;;;;4967893;28;92464;-86
2023/05/30 09:56:46;;;;;;;16.33;3.65;;;;;;;;;;4951522;28;92992;-85
2023/05/30 09:59:14;;;;;;;9.15;3.35;;;;;;;;;;4955555;28;92452;-85
2023/05/30 10:01:45;;;;;;;12.07;3.95;;;;;;;;;;4961430;28;93137;-86
2023/05/30 10:04:22;;;;;;;12.98;4.13;;;;;;;;;;4973691;28;94406;-86
2023/05/30 10:06:53;;;;;;;17.85;4.82;;;;;;;;;;4961181;28;92481;-85
2023/05/30 10:09:23;;;;;;;14.63;3.50;;;;;;;;;;4961597;28;94623;-85
2023/05/30 10:11:50;;;;;;;19.02;3.60;;;;;;;;;;4945258;28;92511;-85
2023/05/30 10:14:17;;;;;;;13.63;4.05;;;;;;;;;;4937736;28;92389;-84
2023/05/30 10:16:46;;;;;;;15.00;3.80;;;;;;;;;;4963490;28;92260;-84
2023/05/30 10:19:16;;;;;;;10.18;3.83;;;;;;;;;;4948628;28;92949;-84
2023/05/30 10:21:43;;;;;;;14.18;3.97;;;;;;;;;;4956155;28;94767;-84
2023/05/30 10:24:12;;;;;;;20.58;3.90;;;;;;;;;;4966273;28;93942;-85
2023/05/30 10:26:42;;;;;;;12.07;3.67;;;;;;;;;;4967702;28;95402;-85
2023/05/30 10:29:11;;;;;;;13.77;3.83;;;;;;;;;;4955594;28;96311;-85
2023/05/30 10:31:38;;;;;;;11.02;3.78;;;;;;;;;;4963817;28;92956;-84
2023/05/30 10:34:08;;;;;;;16.10;4.60;;;;;;;;;;4950452;28;94802;-84
2023/05/30 10:36:35;;;;;;;20.75;4.38;;;;;;;;;;4950858;28;92230;-84
2023/05/30 10:39:04;;;;;;;6.70;3.45;;;;;;;;;;4947386;28;94574;-84
2023/05/30 10:41:54;;;;;;;17.45;3.80;;;;;;;;;;4958231;28;94259;-84
2023/05/30 10:44:46;;;;;;;12.75;3.47;;;;;;;;;;4954315;28;94749;-85
2023/05/30 10:47:19;;;;;;;14.25;4.13;;;;;;;;;;4914934;28;92516;-84
2023/05/30 10:49:47;;;;;;;14.45;3.58;;;;;;;;;;4960666;28;94080;-85
2023/05/30 10:52:17;;;;;;;17.67;4.82;;;;;;;;;;4960673;28;92036;-84
2023/05/30 10:54:46;;;;;;;16.30;4.10;;;;;;;;;;4960500;28;92503;-85
2023/05/30 10:57:21;;;;;;;10.60;4.05;;;;;;;;;;4938999;28;92500;-84
2023/05/30 10:59:48;;;;;;;8.35;3.72;;;;;;;;;;4968200;28;94812;-86
2023/05/30 11:02:20;;;;;;;7.35;3.33;;;;;;;;;;4961646;28;94468;-85
2023/05/30 11:04:50;;;;;;;15.80;4.38;;;;;;;;;;4961967;28;92387;-85
2023/05/30 11:07:17;;;;;;;10.30;3.67;;;;;;;;;;4961751;28;92441;-85
2023/05/30 11:10:02;;;;;;;8.80;3.15;;;;;;;;;;4965529;28;94448;-85
2023/05/30 11:12:31;;;;;;;8.30;2.83;;;;;;;;;;4964965;28;92421;-85
2023/05/30 11:14:59;;;;;;;10.77;3.17;;;;;;;;;;4970916;28;92389;-86
2023/05/30 11:17:30;;;;;;;12.10;3.35;;;;;;;;;;4959798;28;93431;-85
2023/05/30 11:20:06;;;;;;;10.87;3.80;;;;;;;;;;4959836;28;96092;-86
2023/05/30 11:22:33;;;;;;;8.05;3.15;;;;;;;;;;4967918;28;92497;-85
2023/05/30 11:25:22;;;;;;;9.88;3.47;;;;;;;;;;4959183;28;98905;-85
2023/05/30 11:28:05;;;;;;;8.38;3.38;;;;;;;;;;4933950;28;95379;-85
2023/05/30 11:30:37;;;;;;;8.38;2.95;;;;;;;;;;4957151;28;92966;-84
2023/05/30 11:33:08;;;;;;;10.13;3.95;;;;;;;;;;4944966;28;93846;-85
2023/05/30 11:35:38;;;;;;;8.55;3.40;;;;;;;;;;4943939;28;92864;-84
2023/05/30 11:38:09;;;;;;;6.20;2.50;;;;;;;;;;4955133;28;92268;-83
2023/05/30 11:40:41;;;;;;;5.45;3.05;;;;;;;;;;4962546;28;92368;-84
2023/05/30 11:43:07;;;;;;;7.68;2.97;;;;;;;;;;4950752;28;92843;-85
2023/05/30 11:45:34;;;;;;;9.48;2.58;;;;;;;;;;4959244;28;94587;-84
2023/05/30 11:48:07;;;;;;;11.02;2.55;;;;;;;;;;4950523;28;92376;-85
2023/05/30 11:50:40;;;;;;;6.55;2.70;;;;;;;;;;4956222;28;94648;-85
2023/05/30 11:53:12;;;;;;;3.03;2.40;;;;;;;;;;4945221;28;94588;-83
2023/05/30 11:55:39;;;;;;;5.80;2.70;;;;;;;;;;4946878;28;92591;-85
2023/05/30 11:58:06;;;;;;;6.13;2.53;;;;;;;;;;4946892;28;93449;-84
2023/05/30 12:00:32;;;;;;;3.25;2.55;;;;;;;;;;4952357;28;94995;-84
2023/05/30 12:02:59;;;;;;;7.25;2.75;;;;;;;;;;4956760;28;94012;-83
2023/05/30 12:05:26;;;;;;;3.78;2.72;;;;;;;;;;4951469;28;93227;-84
2023/05/30 12:07:53;;;;;;;8.77;2.67;;;;;;;;;;4966428;28;92999;-83
2023/05/30 12:10:29;;;;;;;8.80;2.80;;;;;;;;;;4955177;28;93594;-83
2023/05/30 12:12:56;;;;;;;6.40;2.50;;;;;;;;;;4961216;28;92447;-82
2023/05/30 12:15:23;;;;;;;3.67;2.30;;;;;;;;;;4953808;28;94877;-83
2023/05/30 12:17:51;;;;;;;4.63;2.35;;;;;;;;;;4947393;28;95070;-83
2023/05/30 12:20:19;;;;;;;8.38;2.70;;;;;;;;;;4954877;28;95858;-82
2023/05/30 12:22:47;;;;;;;6.72;2.03;;;;;;;;;;4956305;28;92430;-83
2023/05/30 12:25:13;;;;;;;7.35;2.40;;;;;;;;;;4957562;28;92412;-83
2023/05/30 12:27:41;;;;;;;3.90;2.40;;;;;;;;;;4953243;28;92404;-83
2023/05/30 12:30:15;;;;;;;3.85;2.55;;;;;;;;;;4969661;28;92903;-84
2023/05/30 12:32:41;;;;;;;3.53;1.90;;;;;;;;;;4952532;28;95021;-84
2023/05/30 12:35:09;;;;;;;2.92;1.88;;;;;;;;;;4949392;28;92383;-84
2023/05/30 12:37:36;;;;;;;8.65;2.03;;;;;;;;;;4961127;28;92100;-84
2023/05/30 12:40:05;;;;;;;3.28;2.08;;;;;;;;;;4961498;28;94850;-83
2023/05/30 12:42:32;;;;;;;4.25;2.40;;;;;;;;;;4971168;28;93886;-84
2023/05/30 12:45:00;;;;;;;4.35;2.22;;;;;;;;;;4966844;28;92353;-83
2023/05/30 12:47:27;;;;;;;3.58;2.17;;;;;;;;;;4948165;28;94271;-84
2023/05/30 12:49:54;;;;;;;4.38;2.22;;;;;;;;;;4949090;28;92001;-85
2023/05/30 12:52:22;;;;;;;4.97;2.58;;;;;;;;;;4960513;28;94927;-84
2023/05/30 12:54:49;;;;;;;4.53;1.77;;;;;;;;;;4970060;28;92192;-83
2023/05/30 12:57:19;;;;;;;2.10;1.90;;;;;;;;;;4948386;28;91986;-84
2023/05/30 12:59:46;;;;;;;4.63;1.65;;;;;;;;;;4961217;28;93291;-85
2023/05/30 13:02:13;;;;;;;3.55;1.92;;;;;;;;;;4961902;28;92548;-83
2023/05/30 13:04:40;;;;;;;2.78;1.55;;;;;;;;;;4935163;28;97240;-86
2023/05/30 13:07:09;;;;;;;3.80;2.05;;;;;;;;;;4951771;28;94105;-86
2023/05/30 13:09:36;;;;;;;4.45;2.00;;;;;;;;;;4941898;28;92618;-85
2023/05/30 13:12:08;;;;;;;3.03;1.85;;;;;;;;;;4958034;28;92313;-85
2023/05/30 13:14:37;;;;;;;4.07;2.47;;;;;;;;;;4938378;28;94432;-86
2023/05/30 13:17:05;;;;;;;4.10;1.63;;;;;;;;;;4951808;28;94272;-85
2023/05/30 13:19:32;;;;;;;2.72;1.90;;;;;;;;;;4957799;28;93172;-86
2023/05/30 13:21:59;;;;;;;2.38;2.15;;;;;;;;;;4960669;28;94764;-85
2023/05/30 13:24:26;;;;;;;3.75;2.38;;;;;;;;;;4957076;28;93744;-85
2023/05/30 13:26:52;;;;;;;2.75;2.10;;;;;;;;;;4957472;28;96209;-85
2023/05/30 13:29:19;;;;;;;4.82;2.10;;;;;;;;;;4956970;28;94724;-85
2023/05/30 13:31:45;;;;;;;10.20;2.38;;;;;;;;;;4953935;28;92282;-84
2023/05/30 13:34:12;;;;;;;2.42;2.20;;;;;;;;;;4956144;28;92824;-84
2023/05/30 13:36:38;;;;;;;3.40;2.30;;;;;;;;;;4951560;28;93755;-85
2023/05/30 13:39:05;;;;;;;6.45;2.45;;;;;;;;;;4960524;28;92107;-85
2023/05/30 13:41:31;;;;;;;2.88;2.58;;;;;;;;;;4959334;28;92647;-85
2023/05/30 13:43:58;;;;;;;4.50;2.58;;;;;;;;;;4955292;28;94109;-85
2023/05/30 13:46:24;;;;;;;2.50;2.03;;;;;;;;;;4958189;28;94699;-85
2023/05/30 13:48:52;;;;;;;3.55;2.53;;;;;;;;;;4958359;28;92430;-85
2023/05/30 13:51:18;;;;;;;2.42;2.22;;;;;;;;;;4942714;28;93800;-85
2023/05/30 13:53:46;;;;;;;3.05;2.75;;;;;;;;;;4954654;28;94841;-85
2023/05/30 13:56:27;;;;;;;4.15;2.20;;;;;;;;;;4946071;28;93928;-85
2023/05/30 13:58:54;;;;;;;2.45;2.33;;;;;;;;;;4958307;28;92393;-85
2023/05/30 14:01:22;;;;;;;4.68;2.70;;;;;;;;;;4957971;28;92886;-85
2023/05/30 14:03:49;;;;;;;3.97;2.75;;;;;;;;;;4966455;28;93002;-84
2023/05/30 14:06:16;;;;;;;4.57;2.70;;;;;;;;;;4964343;28;92510;-85
2023/05/30 14:08:42;;;;;;;4.80;2.60;;;;;;;;;;4950219;28;93528;-84
2023/05/30 14:11:08;;;;;;;5.97;2.75;;;;;;;;;;4937463;28;94897;-85
2023/05/30 14:13:35;;;;;;;10.27;3.65;;;;;;;;;;4956109;28;92780;-85
2023/05/30 14:16:02;;;;;;;6.90;2.78;;;;;;;;;;4945241;28;92487;-85
2023/05/30 14:18:29;;;;;;;6.38;2.85;;;;;;;;;;4951176;28;95036;-85
2023/05/30 14:20:56;;;;;;;6.05;3.08;;;;;;;;;;4939141;28;94259;-85
2023/05/30 14:23:23;;;;;;;2.97;2.78;;;;;;;;;;4954959;28;93092;-85
2023/05/30 14:25:50;;;;;;;4.22;2.60;;;;;;;;;;4955861;28;93276;-85
2023/05/30 14:28:17;;;;;;;2.90;2.60;;;;;;;;;;4957433;28;94575;-86
2023/05/30 14:30:44;;;;;;;3.42;2.35;;;;;;;;;;4954252;28;95442;-85
2023/05/30 14:33:10;;;;;;;2.80;2.45;;;;;;;;;;4933828;28;95653;-85
2023/05/30 14:35:37;;;;;;;5.10;2.38;;;;;;;;;;4944274;28;94327;-85
2023/05/30 14:38:05;;;;;;;3.15;2.33;;;;;;;;;;4968803;28;92450;-84
2023/05/30 14:40:34;;;;;;;6.65;2.67;;;;;;;;;;4963925;28;93075;-86